Time;durP1;ratioP1;P1;durP2;ratioP2;P2;SDS_P1;SDS_P2;PMS_P1;PMS_P2;Temp;Humidity;BMP_temperature;BMP_pressure;BME280_temperature;BME280_humidity;BME280_pressure;Samples;Min_cycle;Max_cycle;Signal;HPM_P1;HPM_P2
2022/08/25 00:01:07;;;;;;;1.83;0.70;;;21.90;99.90;;;;;;5006396;28;20076;-78
2022/08/25 00:03:32;;;;;;;1.30;0.60;;;21.90;99.90;;;;;;5024699;28;20489;-77
2022/08/25 00:05:58;;;;;;;1.20;0.70;;;21.80;99.90;;;;;;5022200;28;20026;-79
2022/08/25 00:08:24;;;;;;;1.38;0.70;;;21.80;99.90;;;;;;5023393;28;20121;-78
2022/08/25 00:10:49;;;;;;;1.98;0.65;;;21.80;99.90;;;;;;5021338;28;20036;-79
2022/08/25 00:13:15;;;;;;;2.53;0.80;;;21.80;99.90;;;;;;5021928;28;20478;-78
2022/08/25 00:15:41;;;;;;;2.95;0.70;;;21.70;99.90;;;;;;5005461;28;20029;-77
2022/08/25 00:18:06;;;;;;;1.42;0.82;;;21.70;99.90;;;;;;5020261;28;20045;-78
2022/08/25 00:20:32;;;;;;;1.52;0.80;;;21.70;99.90;;;;;;5027224;28;20056;-78
2022/08/25 00:22:58;;;;;;;1.40;0.90;;;21.70;99.90;;;;;;5019183;28;20436;-76
2022/08/25 00:25:23;;;;;;;1.70;0.90;;;21.70;99.90;;;;;;5024405;28;20033;-78
2022/08/25 00:27:50;;;;;;;1.95;0.80;;;21.70;99.90;;;;;;5021381;28;20421;-78
2022/08/25 00:30:17;;;;;;;2.70;0.65;;;21.70;99.90;;;;;;5006876;28;20029;-76
2022/08/25 00:32:44;;;;;;;1.70;0.70;;;21.60;99.90;;;;;;5022069;28;20033;-77
2022/08/25 00:35:09;;;;;;;1.40;0.70;;;21.60;99.90;;;;;;5023279;28;20033;-77
2022/08/25 00:37:36;;;;;;;3.00;0.95;;;21.60;99.90;;;;;;5024819;28;20037;-78
2022/08/25 00:40:02;;;;;;;2.42;0.85;;;21.60;99.90;;;;;;5029523;28;20049;-77
2022/08/25 00:42:28;;;;;;;2.70;0.63;;;21.60;99.90;;;;;;5042534;28;20045;-78
2022/08/25 00:44:53;;;;;;;2.17;0.70;;;21.60;99.90;;;;;;5010025;28;20512;-77
2022/08/25 00:47:19;;;;;;;2.10;0.60;;;21.50;99.90;;;;;;5023930;28;20491;-78
2022/08/25 00:49:57;;;;;;;1.15;0.70;;;21.50;99.90;;;;;;5026366;28;20017;-78
2022/08/25 00:52:37;;;;;;;2.85;0.60;;;21.50;99.90;;;;;;5024917;28;20040;-78
2022/08/25 00:55:24;;;;;;;1.95;0.60;;;21.40;99.90;;;;;;5023727;28;20370;-77
2022/08/25 00:58:12;;;;;;;1.50;0.68;;;21.30;99.90;;;;;;5022158;28;20384;-77
2022/08/25 01:00:43;;;;;;;1.23;0.60;;;21.20;99.90;;;;;;5025188;28;20098;-78
2022/08/25 01:03:10;;;;;;;1.58;0.60;;;21.10;99.90;;;;;;5043988;28;20037;-78
2022/08/25 01:05:36;;;;;;;2.95;0.70;;;21.00;99.90;;;;;;5024053;28;20025;-77
2022/08/25 01:08:05;;;;;;;1.70;0.60;;;20.90;99.90;;;;;;5025667;28;20179;-77
2022/08/25 01:10:32;;;;;;;1.60;0.70;;;20.80;99.90;;;;;;5027329;28;20114;-78
2022/08/25 01:13:05;;;;;;;2.08;0.70;;;20.80;99.90;;;;;;5028496;28;20409;-79
2022/08/25 01:15:32;;;;;;;3.03;0.70;;;20.70;99.90;;;;;;5027630;28;20033;-78
2022/08/25 01:17:58;;;;;;;1.92;0.70;;;20.60;99.90;;;;;;5047218;28;20120;-78
2022/08/25 01:20:27;;;;;;;2.33;0.82;;;20.50;99.90;;;;;;5048874;28;20021;-78
2022/08/25 01:22:52;;;;;;;2.05;0.70;;;20.40;99.90;;;;;;5049839;28;20126;-78
2022/08/25 01:25:28;;;;;;;2.00;0.57;;;20.40;99.90;;;;;;5045287;28;20064;-78
2022/08/25 01:27:54;;;;;;;1.30;0.70;;;20.30;99.90;;;;;;5017529;28;20492;-76
2022/08/25 01:30:20;;;;;;;1.35;0.70;;;20.20;99.90;;;;;;5010721;28;20390;-78
2022/08/25 01:32:46;;;;;;;1.65;0.70;;;20.20;99.90;;;;;;5011759;28;20436;-78
2022/08/25 01:35:13;;;;;;;1.25;0.60;;;20.20;99.90;;;;;;5047250;28;20132;-78
2022/08/25 01:37:38;;;;;;;1.70;0.60;;;20.20;99.90;;;;;;5047729;28;20029;-78
2022/08/25 01:40:05;;;;;;;1.80;0.68;;;20.10;99.90;;;;;;5031926;28;20394;-78
2022/08/25 01:43:06;;;;;;;1.55;0.60;;;20.10;99.90;;;;;;5028010;28;20186;-77
2022/08/25 01:45:33;;;;;;;1.10;0.60;;;20.10;99.90;;;;;;5044888;28;20029;-78
2022/08/25 01:48:00;;;;;;;2.35;0.80;;;20.10;99.90;;;;;;5027028;28;20021;-76
2022/08/25 01:50:25;;;;;;;2.03;0.50;;;20.20;99.90;;;;;;5045844;28;20035;-78
2022/08/25 01:53:14;;;;;;;2.03;0.50;;;20.20;99.90;;;;;;5046500;28;20397;-77
2022/08/25 01:55:52;;;;;;;1.80;0.70;;;20.20;99.90;;;;;;5028519;28;20029;-78
2022/08/25 01:58:27;;;;;;;1.70;0.60;;;20.20;99.90;;;;;;5028015;28;20112;-77
2022/08/25 02:00:55;;;;;;;1.40;0.73;;;20.10;99.90;;;;;;5011402;28;20124;-77
2022/08/25 02:03:23;;;;;;;1.85;0.63;;;20.10;99.90;;;;;;5029570;28;20047;-77
2022/08/25 02:05:50;;;;;;;1.33;0.57;;;20.20;99.90;;;;;;5012986;28;20032;-78
2022/08/25 02:08:16;;;;;;;2.70;0.70;;;20.20;99.90;;;;;;5046297;28;20078;-77
2022/08/25 02:10:42;;;;;;;2.85;1.00;;;20.30;99.90;;;;;;5028666;28;20144;-77
2022/08/25 02:13:08;;;;;;;2.60;0.60;;;20.30;99.90;;;;;;5047087;28;20116;-78
2022/08/25 02:15:34;;;;;;;2.25;0.60;;;20.30;99.90;;;;;;5047073;28;20095;-77
2022/08/25 02:17:59;;;;;;;1.02;0.50;;;20.30;99.90;;;;;;5027983;28;20171;-78
2022/08/25 02:20:25;;;;;;;2.22;0.55;;;20.30;99.90;;;;;;5047353;28;20111;-77
2022/08/25 02:22:52;;;;;;;1.33;0.50;;;20.30;99.90;;;;;;5014049;28;20059;-77
2022/08/25 02:25:19;;;;;;;1.90;0.60;;;20.40;99.90;;;;;;5048277;28;20013;-78
2022/08/25 02:27:45;;;;;;;1.88;0.50;;;20.40;99.90;;;;;;5026654;28;20029;-78
2022/08/25 02:30:13;;;;;;;1.70;0.60;;;20.30;99.90;;;;;;5027610;28;20036;-78
2022/08/25 02:32:39;;;;;;;1.27;0.60;;;20.20;99.90;;;;;;5026418;28;20496;-77
2022/08/25 02:35:06;;;;;;;1.20;0.50;;;20.30;99.90;;;;;;5046428;28;20155;-76
2022/08/25 02:37:32;;;;;;;1.50;0.60;;;20.30;99.90;;;;;;5046840;28;20136;-77
2022/08/25 02:39:58;;;;;;;2.22;0.70;;;20.30;99.90;;;;;;5028432;28;20042;-78
2022/08/25 02:42:24;;;;;;;2.08;0.50;;;20.30;99.90;;;;;;5045979;28;20052;-77
2022/08/25 02:44:51;;;;;;;0.88;0.47;;;20.30;99.90;;;;;;5026544;28;20025;-78
2022/08/25 02:47:16;;;;;;;1.30;0.50;;;20.30;99.90;;;;;;5044327;28;20029;-78
2022/08/25 02:49:42;;;;;;;2.28;0.50;;;20.30;99.90;;;;;;5010448;28;20033;-77
2022/08/25 02:52:08;;;;;;;3.13;0.50;;;20.30;99.90;;;;;;5027759;28;20025;-77
2022/08/25 02:54:34;;;;;;;1.83;0.50;;;20.30;99.90;;;;;;5027182;28;20713;-78
2022/08/25 02:57:00;;;;;;;2.10;0.47;;;20.30;99.90;;;;;;5043965;28;20025;-77
2022/08/25 02:59:25;;;;;;;2.10;0.60;;;20.20;99.90;;;;;;5061047;28;20071;-77
2022/08/25 03:01:51;;;;;;;2.92;0.55;;;20.20;99.90;;;;;;5044835;28;20036;-76
2022/08/25 03:04:17;;;;;;;2.28;0.55;;;20.20;99.90;;;;;;5059383;28;20021;-79
2022/08/25 03:06:43;;;;;;;2.90;0.55;;;20.20;99.90;;;;;;5028242;28;20029;-78
2022/08/25 03:09:09;;;;;;;0.98;0.50;;;20.20;99.90;;;;;;5026069;28;20382;-78
2022/08/25 03:11:37;;;;;;;2.33;0.70;;;20.10;99.90;;;;;;5044625;28;20112;-78
2022/08/25 03:14:07;;;;;;;1.42;0.50;;;20.10;99.90;;;;;;5044985;28;20381;-78
2022/08/25 03:16:33;;;;;;;1.48;0.60;;;20.10;99.90;;;;;;5043165;28;20470;-78
2022/08/25 03:18:59;;;;;;;2.08;0.50;;;20.00;99.90;;;;;;5028016;28;20067;-78
2022/08/25 03:21:25;;;;;;;2.28;0.55;;;20.00;99.90;;;;;;5015235;28;20056;-77
2022/08/25 03:23:51;;;;;;;1.10;0.50;;;19.90;99.90;;;;;;5010915;28;20852;-77
2022/08/25 03:29:04;;;;;;;1.10;0.50;;;19.90;99.90;;;;;;5025308;28;20032;-78
2022/08/25 03:31:32;;;;;;;3.13;0.50;;;19.90;99.90;;;;;;5043024;28;20032;-78
2022/08/25 03:33:58;;;;;;;2.03;0.57;;;19.80;99.90;;;;;;5043865;28;20040;-78
2022/08/25 03:36:26;;;;;;;1.08;0.47;;;19.80;99.90;;;;;;5045092;28;20378;-77
2022/08/25 03:38:52;;;;;;;2.50;0.50;;;19.80;99.90;;;;;;5027405;28;20035;-77
2022/08/25 03:41:21;;;;;;;1.60;0.60;;;19.80;99.90;;;;;;5025748;28;20049;-78
2022/08/25 03:43:48;;;;;;;2.03;0.60;;;19.90;99.90;;;;;;5026529;28;20094;-78
2022/08/25 03:46:23;;;;;;;1.85;0.55;;;19.90;99.90;;;;;;5031251;28;20021;-78
2022/08/25 03:48:50;;;;;;;1.08;0.50;;;19.90;99.90;;;;;;5043711;28;20100;-78
2022/08/25 03:51:28;;;;;;;1.65;0.60;;;19.90;99.90;;;;;;5047435;28;20507;-77
2022/08/25 03:53:54;;;;;;;2.03;0.50;;;19.90;99.90;;;;;;5044007;28;20056;-78
2022/08/25 03:56:20;;;;;;;1.30;0.60;;;19.90;99.90;;;;;;5045165;28;20405;-77
2022/08/25 03:58:46;;;;;;;1.73;0.50;;;19.90;99.90;;;;;;5024276;28;20035;-78
2022/08/25 04:01:13;;;;;;;1.65;0.55;;;19.90;99.90;;;;;;5024115;28;20037;-76
2022/08/25 04:03:39;;;;;;;1.80;0.50;;;19.80;99.90;;;;;;5025810;28;20044;-77
2022/08/25 04:06:05;;;;;;;2.47;0.60;;;19.70;99.90;;;;;;5026289;28;20123;-77
2022/08/25 04:08:31;;;;;;;1.45;0.55;;;19.60;99.90;;;;;;5025632;28;20208;-78
2022/08/25 04:10:57;;;;;;;3.17;0.60;;;19.50;99.90;;;;;;5044092;28;20032;-78
2022/08/25 04:13:23;;;;;;;2.55;0.70;;;19.50;99.90;;;;;;5043437;28;20037;-77
2022/08/25 04:15:49;;;;;;;1.30;0.60;;;19.40;99.90;;;;;;5013132;28;20025;-77
2022/08/25 04:18:14;;;;;;;1.75;0.70;;;19.30;99.90;;;;;;5044937;28;20024;-78
2022/08/25 04:20:42;;;;;;;1.55;0.70;;;19.30;99.90;;;;;;5043856;28;20392;-78
2022/08/25 04:23:09;;;;;;;1.90;0.70;;;19.20;99.90;;;;;;5014888;28;20979;-77
2022/08/25 04:25:41;;;;;;;2.80;0.90;;;19.10;99.90;;;;;;5044338;28;20123;-78
2022/08/25 04:28:07;;;;;;;1.52;0.70;;;19.00;99.90;;;;;;5021768;28;20040;-76
2022/08/25 04:30:33;;;;;;;1.45;0.77;;;19.00;99.90;;;;;;5024503;28;20029;-78
2022/08/25 04:32:59;;;;;;;4.03;0.70;;;18.90;99.90;;;;;;5025145;28;20043;-77
2022/08/25 04:35:25;;;;;;;1.38;0.80;;;18.90;99.90;;;;;;5025509;28;20029;-79
2022/08/25 04:37:51;;;;;;;2.13;0.70;;;18.90;99.90;;;;;;5012319;28;20045;-78
2022/08/25 04:40:16;;;;;;;1.17;0.68;;;18.80;99.90;;;;;;5025777;28;20037;-78
2022/08/25 04:42:43;;;;;;;2.30;0.85;;;18.80;99.90;;;;;;5042692;28;20033;-77
2022/08/25 04:45:10;;;;;;;3.20;0.90;;;18.70;99.90;;;;;;5041961;28;20377;-77
2022/08/25 04:47:39;;;;;;;1.75;0.75;;;18.70;99.90;;;;;;5026202;28;20040;-76
2022/08/25 04:50:06;;;;;;;;;;;18.70;99.90;;;;;;5008473;28;20090;-76
2022/08/25 04:52:32;;;;;;;2.60;0.80;;;18.60;99.90;;;;;;5044557;28;19909;-77
2022/08/25 04:54:58;;;;;;;2.28;0.85;;;18.60;99.90;;;;;;5037377;28;20110;-78
2022/08/25 04:57:25;;;;;;;1.60;0.85;;;18.60;99.90;;;;;;5040507;28;20025;-76
2022/08/25 04:59:50;;;;;;;2.25;0.80;;;18.60;99.90;;;;;;5025559;28;20025;-77
2022/08/25 05:02:16;;;;;;;1.73;0.80;;;18.60;99.90;;;;;;5025391;28;20175;-78
2022/08/25 05:04:42;;;;;;;2.58;0.90;;;18.60;99.90;;;;;;5023512;28;20052;-77
2022/08/25 05:07:08;;;;;;;2.05;0.80;;;18.60;99.90;;;;;;5026195;28;20059;-76
2022/08/25 05:09:34;;;;;;;7.82;1.00;;;18.60;99.90;;;;;;5025600;28;20156;-77
2022/08/25 05:12:02;;;;;;;4.88;0.90;;;18.70;99.90;;;;;;5007143;28;20466;-77
2022/08/25 05:14:28;;;;;;;4.00;0.60;;;18.70;99.90;;;;;;5023458;28;20036;-76
2022/08/25 05:16:54;;;;;;;3.78;0.70;;;18.80;99.90;;;;;;5011650;28;20111;-76
2022/08/25 05:19:22;;;;;;;3.90;0.52;;;18.90;99.90;;;;;;5024569;28;20037;-76
2022/08/25 05:21:47;;;;;;;3.63;0.70;;;18.90;99.90;;;;;;5046540;28;20470;-76
2022/08/25 05:24:13;;;;;;;2.70;0.63;;;19.00;99.90;;;;;;5058289;28;20044;-77
2022/08/25 05:26:39;;;;;;;6.55;0.60;;;19.00;99.90;;;;;;5042394;28;20887;-76
2022/08/25 05:29:05;;;;;;;3.17;0.50;;;19.10;99.90;;;;;;5043961;28;20409;-78
2022/08/25 05:31:31;;;;;;;1.88;0.50;;;19.10;99.90;;;;;;5011717;28;20025;-76
2022/08/25 05:33:58;;;;;;;2.85;0.70;;;19.20;99.90;;;;;;5039473;28;20063;-76
2022/08/25 05:36:25;;;;;;;1.95;0.60;;;19.20;99.90;;;;;;4994612;28;20041;-77
2022/08/25 05:38:52;;;;;;;1.92;0.50;;;19.30;99.90;;;;;;5011881;28;20438;-78
2022/08/25 05:41:20;;;;;;;3.10;0.50;;;19.30;99.90;;;;;;5024590;28;20041;-77
2022/08/25 05:43:48;;;;;;;2.53;0.50;;;19.40;99.90;;;;;;5023630;28;20064;-78
2022/08/25 05:46:15;;;;;;;4.18;0.52;;;19.40;99.90;;;;;;5044133;28;20032;-77
2022/08/25 05:48:41;;;;;;;8.80;1.33;;;19.50;99.90;;;;;;5024531;28;20511;-76
2022/08/25 05:51:10;;;;;;;10.27;0.80;;;19.50;99.90;;;;;;5044377;28;20071;-76
2022/08/25 05:53:40;;;;;;;5.10;0.60;;;19.60;99.90;;;;;;5011223;28;20060;-76
2022/08/25 05:56:06;;;;;;;9.50;0.98;;;19.70;99.90;;;;;;5042761;28;20064;-77
2022/08/25 05:58:32;;;;;;;7.32;0.57;;;19.80;99.90;;;;;;5047206;28;20032;-77
2022/08/25 06:02:39;;;;;;;2.45;0.50;;;19.90;99.90;;;;;;5027683;28;20449;-75
2022/08/25 06:03:47;;;;;;;3.60;0.70;;;19.90;99.90;;;;;;5027714;28;20073;-77
2022/08/25 06:06:13;;;;;;;3.67;0.50;;;20.10;99.90;;;;;;5027208;28;20022;-77
2022/08/25 06:08:39;;;;;;;2.17;0.47;;;20.20;99.90;;;;;;5027890;28;20049;-77
2022/08/25 06:11:06;;;;;;;1.38;0.50;;;20.30;99.90;;;;;;5027650;28;20028;-77
2022/08/25 06:13:32;;;;;;;1.80;0.45;;;20.50;99.90;;;;;;4978735;28;20148;-77
2022/08/25 06:15:58;;;;;;;2.67;0.50;;;20.50;99.90;;;;;;5027734;28;20111;-78
2022/08/25 06:18:25;;;;;;;4.22;0.45;;;20.60;99.90;;;;;;5029802;28;20039;-77
2022/08/25 06:20:51;;;;;;;1.00;0.40;;;20.70;99.90;;;;;;5028898;28;20060;-76
2022/08/25 06:23:18;;;;;;;2.05;0.40;;;20.80;99.90;;;;;;5046075;28;20057;-79
2022/08/25 06:25:52;;;;;;;2.60;0.57;;;21.00;99.90;;;;;;5012061;28;20077;-77
2022/08/25 06:28:19;;;;;;;2.05;0.50;;;21.10;99.90;;;;;;5027230;28;20038;-77
2022/08/25 06:30:46;;;;;;;1.05;0.50;;;21.30;99.90;;;;;;5027750;28;20026;-76
2022/08/25 06:33:13;;;;;;;1.42;0.52;;;21.50;99.90;;;;;;5030106;28;20102;-77
2022/08/25 06:35:43;;;;;;;0.90;0.40;;;21.60;99.90;;;;;;5027854;28;20095;-78
2022/08/25 06:38:10;;;;;;;0.90;0.40;;;21.80;99.90;;;;;;5044240;28;20045;-77
2022/08/25 06:40:37;;;;;;;2.05;0.55;;;22.00;99.90;;;;;;5024470;28;20539;-76
2022/08/25 06:43:06;;;;;;;1.52;0.50;;;22.20;99.90;;;;;;5045050;28;20037;-77
2022/08/25 06:45:32;;;;;;;1.65;0.50;;;22.40;99.90;;;;;;5014929;28;20025;-78
2022/08/25 06:47:58;;;;;;;1.30;0.50;;;22.60;99.90;;;;;;5046633;28;20091;-77
2022/08/25 06:50:25;;;;;;;1.23;0.50;;;22.80;99.90;;;;;;5027785;28;20431;-76
2022/08/25 06:52:51;;;;;;;1.60;0.43;;;23.10;99.90;;;;;;5046004;28;20400;-77
2022/08/25 06:55:18;;;;;;;2.65;0.60;;;23.30;99.90;;;;;;5030582;28;20032;-76
2022/08/25 06:57:44;;;;;;;1.33;0.65;;;23.50;99.90;;;;;;5045091;28;20106;-78
2022/08/25 07:00:10;;;;;;;1.45;0.40;;;23.70;99.90;;;;;;5013226;28;20094;-77
2022/08/25 07:02:37;;;;;;;1.42;0.40;;;23.90;99.90;;;;;;5026830;28;20086;-76
2022/08/25 07:05:04;;;;;;;1.23;0.50;;;24.00;99.90;;;;;;5044207;28;20104;-78
2022/08/25 07:07:29;;;;;;;2.28;0.50;;;24.20;99.90;;;;;;5043567;28;20114;-77
2022/08/25 07:09:55;;;;;;;3.47;0.60;;;24.40;99.90;;;;;;5027281;28;20057;-79
2022/08/25 07:12:23;;;;;;;1.85;0.52;;;24.50;99.90;;;;;;5026882;28;20124;-76
2022/08/25 07:14:49;;;;;;;2.30;0.60;;;24.60;99.90;;;;;;5026913;28;20029;-77
2022/08/25 07:17:15;;;;;;;0.88;0.40;;;24.70;99.90;;;;;;5008973;28;20406;-77
2022/08/25 07:19:41;;;;;;;1.48;0.50;;;25.00;99.90;;;;;;5042868;28;20500;-76
2022/08/25 07:22:07;;;;;;;2.80;0.50;;;25.10;99.90;;;;;;5039438;28;20519;-79
2022/08/25 07:24:33;;;;;;;1.50;0.50;;;25.20;99.90;;;;;;5012296;28;20029;-78
2022/08/25 07:26:58;;;;;;;2.75;0.50;;;25.30;99.90;;;;;;5044138;28;20076;-79
2022/08/25 07:29:27;;;;;;;2.42;0.50;;;25.30;99.90;;;;;;5059426;28;20036;-77
2022/08/25 07:31:53;;;;;;;1.67;0.40;;;25.50;99.90;;;;;;5043860;28;20017;-78
2022/08/25 07:37:04;;;;;;;1.45;0.45;;;25.90;99.90;;;;;;5043145;28;20028;-79
2022/08/25 07:39:30;;;;;;;1.38;0.50;;;26.00;99.90;;;;;;5045812;28;20028;-79
2022/08/25 07:41:56;;;;;;;1.85;0.55;;;26.30;99.90;;;;;;5043604;28;20021;-78
2022/08/25 07:44:22;;;;;;;2.10;0.40;;;26.50;99.90;;;;;;5012679;28;20083;-78
2022/08/25 07:46:49;;;;;;;1.20;0.50;;;26.50;99.90;;;;;;5026448;28;20029;-80
2022/08/25 07:49:15;;;;;;;1.85;0.57;;;26.70;99.90;;;;;;5028268;28;20035;-77
2022/08/25 07:51:41;;;;;;;3.20;0.57;;;26.90;99.90;;;;;;5026358;28;20138;-79
2022/08/25 07:54:07;;;;;;;1.70;0.40;;;27.00;99.90;;;;;;5026575;28;20111;-78
2022/08/25 07:56:34;;;;;;;1.15;0.40;;;27.30;99.90;;;;;;5043579;28;20021;-78
2022/08/25 07:58:59;;;;;;;1.38;0.55;;;27.20;99.90;;;;;;5007042;28;20049;-79
2022/08/25 08:01:25;;;;;;;3.55;0.60;;;27.40;99.90;;;;;;5027031;28;20034;-79
2022/08/25 08:03:51;;;;;;;2.40;0.50;;;27.50;99.90;;;;;;5039554;28;20080;-80
2022/08/25 08:06:20;;;;;;;1.40;0.50;;;27.80;99.90;;;;;;5041775;28;20033;-79
2022/08/25 08:08:48;;;;;;;1.60;0.60;;;27.80;99.90;;;;;;5007375;28;20043;-80
2022/08/25 08:11:25;;;;;;;1.60;0.40;;;27.90;99.90;;;;;;5011304;28;20085;-80
2022/08/25 08:13:54;;;;;;;1.20;0.50;;;28.20;99.90;;;;;;5024147;28;20032;-78
2022/08/25 08:16:24;;;;;;;1.38;0.60;;;28.10;99.90;;;;;;5030123;28;20017;-80
2022/08/25 08:18:51;;;;;;;1.40;0.52;;;28.20;99.90;;;;;;5025737;28;20029;-81
2022/08/25 08:21:21;;;;;;;2.80;0.50;;;28.40;99.90;;;;;;5013159;28;20028;-78
2022/08/25 08:23:49;;;;;;;1.10;0.52;;;28.60;99.90;;;;;;5015887;28;20109;-80
2022/08/25 08:26:15;;;;;;;1.55;0.50;;;28.40;99.90;;;;;;5007954;28;20037;-78
2022/08/25 08:28:41;;;;;;;1.42;0.50;;;28.40;99.90;;;;;;5045579;28;20075;-78
2022/08/25 08:31:07;;;;;;;1.42;0.50;;;28.50;99.90;;;;;;5012062;28;20056;-78
2022/08/25 08:33:33;;;;;;;1.67;0.50;;;28.60;99.90;;;;;;5042484;28;20393;-80
2022/08/25 08:36:08;;;;;;;1.00;0.40;;;28.80;99.90;;;;;;5011616;28;20366;-81
2022/08/25 08:38:35;;;;;;;1.58;0.55;;;29.20;99.90;;;;;;5024035;28;20493;-81
2022/08/25 08:44:06;;;;;;;1.10;0.50;;;28.80;99.90;;;;;;5042615;28;20037;-80
2022/08/25 08:46:45;;;;;;;2.78;0.60;;;28.90;99.90;;;;;;5025375;28;20064;-81
2022/08/25 08:49:33;;;;;;;2.55;0.50;;;28.80;99.90;;;;;;5042512;28;20029;-81
2022/08/25 08:52:00;;;;;;;1.90;0.50;;;29.20;99.90;;;;;;5042248;28;20393;-80
2022/08/25 08:54:31;;;;;;;1.85;0.50;;;29.50;99.90;;;;;;5044542;28;20083;-80
2022/08/25 08:57:10;;;;;;;1.67;0.60;;;29.40;99.90;;;;;;5042281;28;20025;-77
2022/08/25 08:59:46;;;;;;;3.45;0.70;;;29.40;99.90;;;;;;5025660;28;20040;-77
2022/08/25 09:02:21;;;;;;;2.45;0.60;;;29.50;99.90;;;;;;5024966;28;20554;-79
2022/08/25 09:04:53;;;;;;;4.00;0.70;;;29.50;99.90;;;;;;5021446;28;20552;-78
2022/08/25 09:07:41;;;;;;;2.85;0.60;;;29.70;99.90;;;;;;5043189;28;20029;-81
2022/08/25 09:10:08;;;;;;;2.08;0.50;;;29.90;99.90;;;;;;5008044;28;20044;-80
2022/08/25 09:12:59;;;;;;;2.35;0.70;;;29.80;99.90;;;;;;5025512;28;20064;-79
2022/08/25 09:18:48;;;;;;;2.50;0.50;;;30.50;99.90;;;;;;5022847;28;20017;-80
2022/08/25 09:21:34;;;;;;;2.15;0.50;;;30.50;99.90;;;;;;5026199;28;20396;-80
2022/08/25 09:24:02;;;;;;;3.28;0.60;;;30.40;99.90;;;;;;5029438;28;20135;-80
2022/08/25 09:26:43;;;;;;;1.42;0.50;;;30.30;99.90;;;;;;5024279;28;20017;-81
2022/08/25 09:29:19;;;;;;;1.55;0.40;;;30.60;99.90;;;;;;5007673;28;20033;-81
2022/08/25 09:31:47;;;;;;;1.30;0.40;;;30.90;99.90;;;;;;5005850;28;20042;-79
2022/08/25 09:34:31;;;;;;;1.50;0.50;;;31.20;99.90;;;;;;5014663;28;20032;-80
2022/08/25 09:36:57;;;;;;;2.75;0.40;;;31.10;99.90;;;;;;5045592;28;20108;-80
2022/08/25 09:39:23;;;;;;;2.25;0.40;;;31.20;99.90;;;;;;5027890;28;20112;-78
2022/08/25 09:42:07;;;;;;;0.85;0.40;;;31.10;99.90;;;;;;5027763;28;20041;-77
2022/08/25 09:44:42;;;;;;;1.27;0.40;;;31.00;99.90;;;;;;5029179;28;20382;-78
2022/08/25 09:47:40;;;;;;;1.17;0.50;;;31.00;99.90;;;;;;5046723;28;20097;-80
2022/08/25 09:50:15;;;;;;;0.93;0.40;;;31.00;99.90;;;;;;5044522;28;20033;-78
2022/08/25 09:52:43;;;;;;;1.70;0.40;;;31.10;99.90;;;;;;5027098;28;20037;-80
2022/08/25 09:55:14;;;;;;;2.08;0.50;;;31.30;99.90;;;;;;5028459;28;20029;-80
2022/08/25 09:57:46;;;;;;;1.10;0.40;;;31.50;99.90;;;;;;5023499;28;20037;-79
2022/08/25 10:00:27;;;;;;;1.33;0.40;;;31.90;99.90;;;;;;5029709;28;20492;-79
2022/08/25 10:03:18;;;;;;;2.63;0.40;;;32.10;99.90;;;;;;5024883;28;20036;-78
2022/08/25 10:06:06;;;;;;;1.90;0.40;;;31.90;99.90;;;;;;5028726;28;20032;-81
2022/08/25 10:08:39;;;;;;;1.70;0.40;;;32.10;99.90;;;;;;5029422;28;20040;-78
2022/08/25 10:11:11;;;;;;;3.13;0.40;;;32.60;99.90;;;;;;5043200;28;20722;-77
2022/08/25 10:13:41;;;;;;;1.30;0.38;;;32.60;99.90;;;;;;5046849;28;20026;-78
2022/08/25 10:16:16;;;;;;;1.35;0.40;;;32.40;99.90;;;;;;5011012;28;20665;-79
2022/08/25 10:18:41;;;;;;;1.08;0.30;;;32.50;99.90;;;;;;5046655;28;20036;-79
2022/08/25 10:21:11;;;;;;;1.40;0.30;;;32.90;99.90;;;;;;5047172;28;20562;-79
2022/08/25 10:23:44;;;;;;;1.13;0.30;;;32.90;99.90;;;;;;5028463;28;20055;-78
2022/08/25 10:26:32;;;;;;;1.00;0.30;;;32.90;99.90;;;;;;5014865;28;20067;-79
2022/08/25 10:28:58;;;;;;;1.17;0.30;;;32.90;99.90;;;;;;5019117;28;20071;-77
2022/08/25 10:31:50;;;;;;;1.65;0.25;;;33.00;99.90;;;;;;5029504;28;20024;-81
2022/08/25 10:34:44;;;;;;;0.70;0.25;;;33.00;99.70;;;;;;5010739;28;20036;-81
2022/08/25 10:37:14;;;;;;;1.02;0.30;;;32.80;99.90;;;;;;5028816;28;20032;-80
2022/08/25 10:39:43;;;;;;;0.70;0.30;;;32.90;99.90;;;;;;5044714;28;20529;-81
2022/08/25 10:42:20;;;;;;;0.70;0.30;;;32.70;99.80;;;;;;5009072;28;20025;-78
2022/08/25 10:48:31;;;;;;;1.42;0.28;;;33.50;99.60;;;;;;5026384;28;20053;-81
2022/08/25 10:51:24;;;;;;;1.38;0.30;;;33.30;99.40;;;;;;4948074;29;20697;-78
2022/08/25 10:54:06;;;;;;;0.85;0.20;;;33.30;99.60;;;;;;4932302;29;20039;-78
2022/08/25 10:56:40;;;;;;;0.60;0.30;;;33.00;99.50;;;;;;4947910;29;20122;-80
2022/08/25 10:59:30;;;;;;;1.20;0.20;;;33.30;99.10;;;;;;4948430;29;20074;-81
2022/08/25 11:02:54;;;;;;;0.63;0.30;;;33.50;98.60;;;;;;4935602;29;20036;-81
2022/08/25 11:05:27;;;;;;;0.90;0.20;;;33.20;99.20;;;;;;4865713;29;20057;-78
2022/08/25 11:08:13;;;;;;;0.85;0.40;;;33.20;99.30;;;;;;4846549;29;20038;-81
2022/08/25 11:11:00;;;;;;;0.75;0.35;;;32.80;98.70;;;;;;4846281;29;20069;-78
2022/08/25 11:13:47;;;;;;;1.75;0.28;;;33.30;99.10;;;;;;4841572;29;20069;-80
2022/08/25 11:16:19;;;;;;;1.00;0.22;;;33.70;98.90;;;;;;4849359;29;20046;-77
2022/08/25 11:19:01;;;;;;;0.70;0.20;;;34.00;98.30;;;;;;4849136;29;20049;-77
2022/08/25 11:21:38;;;;;;;0.55;0.20;;;33.90;97.80;;;;;;4846737;29;20029;-79
2022/08/25 11:24:13;;;;;;;2.20;0.30;;;34.20;99.00;;;;;;4857224;29;20466;-81
2022/08/25 11:26:52;;;;;;;0.55;0.20;;;34.10;97.50;;;;;;4929587;29;20035;-80
2022/08/25 11:29:20;;;;;;;0.63;0.20;;;34.10;98.20;;;;;;4912871;29;20062;-78
2022/08/25 11:31:50;;;;;;;0.22;0.10;;;34.00;97.10;;;;;;4947081;28;20038;-81
2022/08/25 11:34:17;;;;;;;0.40;0.20;;;34.30;97.50;;;;;;4933420;29;20036;-79
2022/08/25 11:36:59;;;;;;;0.65;0.20;;;34.50;97.10;;;;;;4936258;29;20058;-80
2022/08/25 11:39:47;;;;;;;0.65;0.20;;;34.60;98.10;;;;;;4946100;28;20113;-77
2022/08/25 11:42:24;;;;;;;0.45;0.17;;;34.40;96.80;;;;;;5026609;28;20044;-77
2022/08/25 11:45:02;;;;;;;1.15;0.20;;;34.30;96.50;;;;;;5027378;28;20025;-77
2022/08/25 11:47:53;;;;;;;0.80;0.30;;;34.10;96.30;;;;;;5044343;28;20021;-79
2022/08/25 11:50:32;;;;;;;0.50;0.20;;;33.50;96.90;;;;;;5025415;28;20184;-79
2022/08/25 11:53:24;;;;;;;0.88;0.30;;;34.20;97.40;;;;;;5045879;28;20096;-80
2022/08/25 11:55:53;;;;;;;0.88;0.20;;;33.90;96.30;;;;;;5043946;28;20032;-80
2022/08/25 11:58:40;;;;;;;0.70;0.20;;;33.80;96.20;;;;;;5046541;28;20470;-81
2022/08/25 12:01:28;;;;;;;0.63;0.20;;;34.00;97.00;;;;;;5043434;28;20108;-78
2022/08/25 12:04:13;;;;;;;1.38;0.30;;;34.00;97.00;;;;;;5043384;28;20048;-78
2022/08/25 12:07:04;;;;;;;0.85;0.20;;;34.20;96.10;;;;;;5024644;28;20348;-78
2022/08/25 12:09:32;;;;;;;0.55;0.20;;;34.30;97.00;;;;;;5026878;28;20025;-78
2022/08/25 12:11:58;;;;;;;0.40;0.20;;;34.20;96.80;;;;;;5045438;28;20037;-78
2022/08/25 12:14:23;;;;;;;1.30;0.20;;;34.00;96.30;;;;;;5024996;28;20044;-81
2022/08/25 12:16:55;;;;;;;1.17;0.20;;;34.00;95.90;;;;;;5044667;28;20473;-78
2022/08/25 12:19:35;;;;;;;0.68;0.20;;;33.90;95.70;;;;;;5024980;28;20075;-78
2022/08/25 12:22:01;;;;;;;0.60;0.20;;;34.00;95.20;;;;;;5024178;28;20042;-80
2022/08/25 12:24:42;;;;;;;0.30;0.20;;;33.70;95.10;;;;;;5026475;28;20037;-79
2022/08/25 12:27:29;;;;;;;0.43;0.20;;;33.80;95.40;;;;;;5023119;28;20487;-78
2022/08/25 12:30:02;;;;;;;0.55;0.20;;;33.80;95.20;;;;;;5023428;28;20264;-78
2022/08/25 12:32:30;;;;;;;0.43;0.20;;;33.70;95.50;;;;;;5027780;28;20055;-80
2022/08/25 12:35:40;;;;;;;1.48;0.20;;;33.60;95.60;;;;;;5042519;28;20080;-80
2022/08/25 12:38:14;;;;;;;0.40;0.20;;;33.90;95.60;;;;;;5043073;28;20025;-79
2022/08/25 12:40:44;;;;;;;1.55;0.20;;;33.90;96.10;;;;;;5023796;28;20049;-78
2022/08/25 12:43:19;;;;;;;0.82;0.20;;;34.20;96.10;;;;;;5019885;28;20394;-79
2022/08/25 12:46:19;;;;;;;0.90;0.22;;;34.20;95.60;;;;;;5024554;28;20470;-81
2022/08/25 12:48:56;;;;;;;0.57;0.20;;;34.00;95.30;;;;;;5020930;28;20056;-79
2022/08/25 12:51:26;;;;;;;0.88;0.22;;;34.20;95.70;;;;;;5022237;28;20105;-78
2022/08/25 12:54:19;;;;;;;0.70;0.20;;;33.70;94.90;;;;;;5023010;28;20022;-77
2022/08/25 12:56:56;;;;;;;0.55;0.20;;;33.70;94.90;;;;;;5020682;28;20032;-78
2022/08/25 12:59:35;;;;;;;0.35;0.20;;;33.90;95.40;;;;;;5010067;28;20029;-78
2022/08/25 13:02:32;;;;;;;0.90;0.20;;;34.20;95.10;;;;;;5022304;28;20033;-81
2022/08/25 13:05:19;;;;;;;0.85;0.10;;;34.10;95.40;;;;;;5021452;28;20021;-79
2022/08/25 13:08:20;;;;;;;2.00;0.15;;;34.20;95.50;;;;;;5021527;28;20025;-79
2022/08/25 13:11:00;;;;;;;0.60;0.20;;;34.00;94.90;;;;;;4980376;28;20034;-78
2022/08/25 13:14:14;;;;;;;0.55;0.15;;;33.90;95.00;;;;;;4966067;28;20051;-78
2022/08/25 13:16:50;;;;;;;0.43;0.20;;;34.10;95.30;;;;;;4950087;28;20154;-81
2022/08/25 13:19:18;;;;;;;0.43;0.20;;;34.10;94.90;;;;;;4965807;28;20525;-81
2022/08/25 13:21:44;;;;;;;1.13;0.20;;;34.20;94.80;;;;;;4949854;28;20026;-78
2022/08/25 13:24:30;;;;;;;0.47;0.20;;;34.20;94.60;;;;;;4933132;28;20070;-79